sensor_id;sensor_type;location;lat;lon;timestamp;P1;durP1;ratioP1;P2;durP2;ratioP2
2175;SDS011;1094;49.902;10.876;2023-01-25T00:00:07;36.30;;;32.63;;
2175;SDS011;1094;49.902;10.876;2023-01-25T00:02:33;33.63;;;30.43;;
2175;SDS011;1094;49.902;10.876;2023-01-25T00:04:59;32.13;;;29.20;;
2175;SDS011;1094;49.902;10.876;2023-01-25T00:07:25;32.07;;;29.20;;
2175;SDS011;1094;49.902;10.876;2023-01-25T00:09:51;31.63;;;28.83;;
2175;SDS011;1094;49.902;10.876;2023-01-25T00:12:17;32.53;;;29.50;;
2175;SDS011;1094;49.902;10.876;2023-01-25T00:14:44;34.00;;;30.63;;
2175;SDS011;1094;49.902;10.876;2023-01-25T00:17:10;33.53;;;30.15;;
2175;SDS011;1094;49.902;10.876;2023-01-25T00:19:36;32.00;;;29.00;;
2175;SDS011;1094;49.902;10.876;2023-01-25T00:22:02;33.17;;;29.80;;
2175;SDS011;1094;49.902;10.876;2023-01-25T00:24:28;33.17;;;29.80;;
2175;SDS011;1094;49.902;10.876;2023-01-25T00:26:54;32.30;;;29.50;;
2175;SDS011;1094;49.902;10.876;2023-01-25T00:29:20;34.13;;;30.97;;
2175;SDS011;1094;49.902;10.876;2023-01-25T00:39:16;34.87;;;31.23;;
2175;SDS011;1094;49.902;10.876;2023-01-25T00:41:43;33.10;;;29.75;;
2175;SDS011;1094;49.902;10.876;2023-01-25T00:44:09;32.03;;;29.17;;
2175;SDS011;1094;49.902;10.876;2023-01-25T00:46:35;31.40;;;28.70;;
2175;SDS011;1094;49.902;10.876;2023-01-25T00:49:01;32.37;;;29.33;;
2175;SDS011;1094;49.902;10.876;2023-01-25T00:51:27;33.67;;;30.37;;
2175;SDS011;1094;49.902;10.876;2023-01-25T00:53:53;32.07;;;29.03;;
2175;SDS011;1094;49.902;10.876;2023-01-25T00:56:19;32.80;;;29.60;;
2175;SDS011;1094;49.902;10.876;2023-01-25T00:58:45;31.80;;;28.88;;
2175;SDS011;1094;49.902;10.876;2023-01-25T01:01:11;32.50;;;29.50;;
2175;SDS011;1094;49.902;10.876;2023-01-25T01:03:37;32.45;;;29.55;;
2175;SDS011;1094;49.902;10.876;2023-01-25T01:06:04;31.70;;;28.70;;
2175;SDS011;1094;49.902;10.876;2023-01-25T01:08:34;32.08;;;28.83;;
2175;SDS011;1094;49.902;10.876;2023-01-25T01:11:01;32.03;;;29.00;;
2175;SDS011;1094;49.902;10.876;2023-01-25T01:13:28;34.85;;;31.55;;
2175;SDS011;1094;49.902;10.876;2023-01-25T01:15:54;33.85;;;30.40;;
2175;SDS011;1094;49.902;10.876;2023-01-25T01:18:20;36.10;;;32.37;;
2175;SDS011;1094;49.902;10.876;2023-01-25T01:20:47;35.80;;;32.17;;
2175;SDS011;1094;49.902;10.876;2023-01-25T01:23:13;34.03;;;30.67;;
2175;SDS011;1094;49.902;10.876;2023-01-25T01:25:39;32.77;;;29.77;;
2175;SDS011;1094;49.902;10.876;2023-01-25T01:28:05;31.73;;;28.80;;
2175;SDS011;1094;49.902;10.876;2023-01-25T01:30:31;32.80;;;29.67;;
2175;SDS011;1094;49.902;10.876;2023-01-25T01:32:57;34.47;;;31.23;;
2175;SDS011;1094;49.902;10.876;2023-01-25T01:35:23;34.13;;;30.43;;
2175;SDS011;1094;49.902;10.876;2023-01-25T01:37:49;31.30;;;28.53;;
2175;SDS011;1094;49.902;10.876;2023-01-25T01:40:15;32.60;;;29.60;;
2175;SDS011;1094;49.902;10.876;2023-01-25T01:43:04;31.60;;;28.80;;
2175;SDS011;1094;49.902;10.876;2023-01-25T01:48:15;33.42;;;30.33;;
2175;SDS011;1094;49.902;10.876;2023-01-25T01:50:43;35.43;;;31.70;;
2175;SDS011;1094;49.902;10.876;2023-01-25T01:53:09;34.35;;;30.80;;
2175;SDS011;1094;49.902;10.876;2023-01-25T01:55:35;32.87;;;29.63;;
2175;SDS011;1094;49.902;10.876;2023-01-25T01:58:01;34.55;;;31.00;;
2175;SDS011;1094;49.902;10.876;2023-01-25T02:00:28;34.17;;;30.67;;
2175;SDS011;1094;49.902;10.876;2023-01-25T02:02:55;32.70;;;29.50;;
2175;SDS011;1094;49.902;10.876;2023-01-25T02:05:46;33.30;;;30.23;;
2175;SDS011;1094;49.902;10.876;2023-01-25T02:08:09;37.20;;;31.33;;
2175;SDS011;1094;49.902;10.876;2023-01-25T02:10:36;32.72;;;29.52;;
2175;SDS011;1094;49.902;10.876;2023-01-25T02:13:03;34.15;;;30.85;;
2175;SDS011;1094;49.902;10.876;2023-01-25T02:15:32;34.20;;;30.83;;
2175;SDS011;1094;49.902;10.876;2023-01-25T02:17:58;35.30;;;31.73;;
2175;SDS011;1094;49.902;10.876;2023-01-25T02:20:33;34.50;;;31.13;;
2175;SDS011;1094;49.902;10.876;2023-01-25T02:25:46;33.33;;;30.00;;
2175;SDS011;1094;49.902;10.876;2023-01-25T02:30:50;33.95;;;30.55;;
2175;SDS011;1094;49.902;10.876;2023-01-25T02:33:16;35.90;;;32.20;;
2175;SDS011;1094;49.902;10.876;2023-01-25T02:38:12;32.13;;;29.10;;
2175;SDS011;1094;49.902;10.876;2023-01-25T02:40:45;33.45;;;29.98;;
2175;SDS011;1094;49.902;10.876;2023-01-25T02:43:13;33.45;;;30.25;;
2175;SDS011;1094;49.902;10.876;2023-01-25T02:45:39;34.42;;;31.33;;
2175;SDS011;1094;49.902;10.876;2023-01-25T02:48:05;33.33;;;29.92;;
2175;SDS011;1094;49.902;10.876;2023-01-25T02:50:31;34.45;;;30.92;;
2175;SDS011;1094;49.902;10.876;2023-01-25T02:52:57;32.00;;;29.00;;
2175;SDS011;1094;49.902;10.876;2023-01-25T02:55:23;32.25;;;29.15;;
2175;SDS011;1094;49.902;10.876;2023-01-25T02:57:49;31.63;;;28.77;;
2175;SDS011;1094;49.902;10.876;2023-01-25T03:10:59;31.25;;;28.05;;
2175;SDS011;1094;49.902;10.876;2023-01-25T03:46:57;35.63;;;29.80;;
2175;SDS011;1094;49.902;10.876;2023-01-25T03:49:23;33.60;;;30.10;;
2175;SDS011;1094;49.902;10.876;2023-01-25T03:51:49;33.63;;;30.30;;
2175;SDS011;1094;49.902;10.876;2023-01-25T03:54:15;34.10;;;30.60;;
2175;SDS011;1094;49.902;10.876;2023-01-25T03:56:41;33.77;;;30.47;;
2175;SDS011;1094;49.902;10.876;2023-01-25T03:59:07;32.87;;;29.87;;
2175;SDS011;1094;49.902;10.876;2023-01-25T04:01:33;31.60;;;28.90;;
2175;SDS011;1094;49.902;10.876;2023-01-25T04:04:00;33.47;;;30.17;;
2175;SDS011;1094;49.902;10.876;2023-01-25T04:06:25;32.83;;;29.10;;
2175;SDS011;1094;49.902;10.876;2023-01-25T04:08:51;31.00;;;27.90;;
2175;SDS011;1094;49.902;10.876;2023-01-25T04:11:18;32.15;;;29.17;;
2175;SDS011;1094;49.902;10.876;2023-01-25T04:13:43;33.23;;;30.13;;
2175;SDS011;1094;49.902;10.876;2023-01-25T04:16:09;34.40;;;30.80;;
2175;SDS011;1094;49.902;10.876;2023-01-25T04:18:36;32.13;;;29.13;;
2175;SDS011;1094;49.902;10.876;2023-01-25T04:21:02;33.13;;;29.83;;
2175;SDS011;1094;49.902;10.876;2023-01-25T04:23:28;32.50;;;29.17;;
2175;SDS011;1094;49.902;10.876;2023-01-25T04:25:58;32.33;;;29.37;;
2175;SDS011;1094;49.902;10.876;2023-01-25T04:28:24;33.45;;;30.25;;
2175;SDS011;1094;49.902;10.876;2023-01-25T04:30:50;31.38;;;28.88;;
2175;SDS011;1094;49.902;10.876;2023-01-25T04:33:17;31.08;;;28.27;;
2175;SDS011;1094;49.902;10.876;2023-01-25T04:35:43;31.73;;;28.97;;
2175;SDS011;1094;49.902;10.876;2023-01-25T04:38:09;31.75;;;28.85;;
2175;SDS011;1094;49.902;10.876;2023-01-25T04:40:35;31.25;;;28.50;;
2175;SDS011;1094;49.902;10.876;2023-01-25T04:43:01;30.83;;;28.15;;
2175;SDS011;1094;49.902;10.876;2023-01-25T04:45:27;30.13;;;27.20;;
2175;SDS011;1094;49.902;10.876;2023-01-25T04:48:00;32.90;;;29.90;;
2175;SDS011;1094;49.902;10.876;2023-01-25T04:50:27;32.88;;;29.80;;
2175;SDS011;1094;49.902;10.876;2023-01-25T04:52:53;31.60;;;28.40;;
2175;SDS011;1094;49.902;10.876;2023-01-25T04:55:19;32.50;;;29.70;;
2175;SDS011;1094;49.902;10.876;2023-01-25T04:57:47;32.97;;;30.08;;
2175;SDS011;1094;49.902;10.876;2023-01-25T05:00:14;33.45;;;30.33;;
2175;SDS011;1094;49.902;10.876;2023-01-25T05:02:40;30.85;;;28.25;;
2175;SDS011;1094;49.902;10.876;2023-01-25T05:05:07;33.90;;;30.60;;
2175;SDS011;1094;49.902;10.876;2023-01-25T05:07:33;32.17;;;29.02;;
2175;SDS011;1094;49.902;10.876;2023-01-25T05:09:59;31.57;;;28.90;;
2175;SDS011;1094;49.902;10.876;2023-01-25T05:12:25;30.90;;;28.20;;
2175;SDS011;1094;49.902;10.876;2023-01-25T05:14:51;31.00;;;28.20;;
2175;SDS011;1094;49.902;10.876;2023-01-25T05:17:17;28.92;;;26.40;;
2175;SDS011;1094;49.902;10.876;2023-01-25T05:19:43;28.87;;;26.50;;
2175;SDS011;1094;49.902;10.876;2023-01-25T05:22:15;30.80;;;27.93;;
2175;SDS011;1094;49.902;10.876;2023-01-25T05:24:42;29.83;;;27.33;;
2175;SDS011;1094;49.902;10.876;2023-01-25T05:27:10;29.83;;;27.10;;
2175;SDS011;1094;49.902;10.876;2023-01-25T05:29:37;28.67;;;26.35;;
2175;SDS011;1094;49.902;10.876;2023-01-25T05:32:04;30.52;;;27.45;;
2175;SDS011;1094;49.902;10.876;2023-01-25T05:34:31;29.55;;;26.90;;
2175;SDS011;1094;49.902;10.876;2023-01-25T05:36:57;30.80;;;28.15;;
2175;SDS011;1094;49.902;10.876;2023-01-25T05:39:26;31.25;;;28.60;;
2175;SDS011;1094;49.902;10.876;2023-01-25T05:41:52;32.80;;;29.60;;
2175;SDS011;1094;49.902;10.876;2023-01-25T05:44:18;31.00;;;28.43;;
2175;SDS011;1094;49.902;10.876;2023-01-25T05:46:44;31.67;;;28.80;;
2175;SDS011;1094;49.902;10.876;2023-01-25T05:49:10;29.87;;;27.40;;
2175;SDS011;1094;49.902;10.876;2023-01-25T05:51:37;30.02;;;27.45;;
2175;SDS011;1094;49.902;10.876;2023-01-25T05:54:03;31.95;;;29.10;;
2175;SDS011;1094;49.902;10.876;2023-01-25T05:56:30;32.65;;;29.85;;
2175;SDS011;1094;49.902;10.876;2023-01-25T05:58:56;31.13;;;28.65;;
2175;SDS011;1094;49.902;10.876;2023-01-25T06:01:23;32.35;;;29.33;;
2175;SDS011;1094;49.902;10.876;2023-01-25T06:03:49;31.80;;;29.05;;
2175;SDS011;1094;49.902;10.876;2023-01-25T06:06:15;30.88;;;28.25;;
2175;SDS011;1094;49.902;10.876;2023-01-25T06:08:41;31.15;;;28.27;;
2175;SDS011;1094;49.902;10.876;2023-01-25T06:11:09;30.83;;;28.33;;
2175;SDS011;1094;49.902;10.876;2023-01-25T06:13:36;29.52;;;27.13;;
2175;SDS011;1094;49.902;10.876;2023-01-25T06:16:02;31.67;;;29.00;;
2175;SDS011;1094;49.902;10.876;2023-01-25T06:18:29;29.15;;;26.83;;
2175;SDS011;1094;49.902;10.876;2023-01-25T06:20:56;31.83;;;29.05;;
2175;SDS011;1094;49.902;10.876;2023-01-25T06:23:22;31.25;;;28.45;;
2175;SDS011;1094;49.902;10.876;2023-01-25T06:25:48;32.80;;;29.70;;
2175;SDS011;1094;49.902;10.876;2023-01-25T06:28:14;32.63;;;29.90;;
2175;SDS011;1094;49.902;10.876;2023-01-25T06:30:40;31.10;;;28.50;;
2175;SDS011;1094;49.902;10.876;2023-01-25T06:33:06;29.70;;;27.20;;
2175;SDS011;1094;49.902;10.876;2023-01-25T06:35:32;31.38;;;28.73;;
2175;SDS011;1094;49.902;10.876;2023-01-25T06:37:59;31.85;;;28.88;;
2175;SDS011;1094;49.902;10.876;2023-01-25T06:40:25;32.58;;;29.50;;
2175;SDS011;1094;49.902;10.876;2023-01-25T06:42:51;29.80;;;27.38;;
2175;SDS011;1094;49.902;10.876;2023-01-25T06:45:17;31.50;;;28.70;;
2175;SDS011;1094;49.902;10.876;2023-01-25T06:47:43;30.40;;;27.57;;
2175;SDS011;1094;49.902;10.876;2023-01-25T06:50:10;31.73;;;29.02;;
2175;SDS011;1094;49.902;10.876;2023-01-25T06:52:36;30.00;;;27.33;;
2175;SDS011;1094;49.902;10.876;2023-01-25T06:55:03;29.77;;;27.13;;
2175;SDS011;1094;49.902;10.876;2023-01-25T06:57:29;29.75;;;27.13;;
2175;SDS011;1094;49.902;10.876;2023-01-25T06:59:55;29.83;;;27.33;;
2175;SDS011;1094;49.902;10.876;2023-01-25T07:02:21;30.07;;;27.47;;
2175;SDS011;1094;49.902;10.876;2023-01-25T07:04:47;29.70;;;27.00;;
2175;SDS011;1094;49.902;10.876;2023-01-25T07:07:13;31.10;;;28.30;;
2175;SDS011;1094;49.902;10.876;2023-01-25T07:09:39;30.87;;;28.10;;
2175;SDS011;1094;49.902;10.876;2023-01-25T07:12:05;30.90;;;28.20;;
2175;SDS011;1094;49.902;10.876;2023-01-25T07:14:31;32.35;;;28.98;;
2175;SDS011;1094;49.902;10.876;2023-01-25T07:16:57;29.95;;;27.17;;
2175;SDS011;1094;49.902;10.876;2023-01-25T07:19:23;32.10;;;29.10;;
2175;SDS011;1094;49.902;10.876;2023-01-25T07:21:49;28.63;;;25.87;;
2175;SDS011;1094;49.902;10.876;2023-01-25T07:24:16;31.63;;;28.60;;
2175;SDS011;1094;49.902;10.876;2023-01-25T07:26:42;28.98;;;26.52;;
2175;SDS011;1094;49.902;10.876;2023-01-25T07:29:10;28.67;;;26.23;;
2175;SDS011;1094;49.902;10.876;2023-01-25T07:31:37;28.95;;;26.35;;
2175;SDS011;1094;49.902;10.876;2023-01-25T07:34:03;27.70;;;25.27;;
2175;SDS011;1094;49.902;10.876;2023-01-25T07:36:29;29.38;;;26.73;;
2175;SDS011;1094;49.902;10.876;2023-01-25T07:38:55;27.27;;;24.77;;
2175;SDS011;1094;49.902;10.876;2023-01-25T07:41:22;27.75;;;25.75;;
2175;SDS011;1094;49.902;10.876;2023-01-25T07:43:49;28.30;;;25.80;;
2175;SDS011;1094;49.902;10.876;2023-01-25T07:46:17;28.38;;;25.90;;
2175;SDS011;1094;49.902;10.876;2023-01-25T07:48:45;28.70;;;26.30;;
2175;SDS011;1094;49.902;10.876;2023-01-25T07:51:11;27.17;;;24.67;;
2175;SDS011;1094;49.902;10.876;2023-01-25T07:53:46;26.73;;;24.63;;
2175;SDS011;1094;49.902;10.876;2023-01-25T07:56:12;28.55;;;26.02;;
2175;SDS011;1094;49.902;10.876;2023-01-25T07:58:38;29.00;;;26.30;;
2175;SDS011;1094;49.902;10.876;2023-01-25T08:01:08;28.37;;;25.80;;
2175;SDS011;1094;49.902;10.876;2023-01-25T08:03:34;28.30;;;25.90;;
2175;SDS011;1094;49.902;10.876;2023-01-25T08:06:00;30.17;;;27.38;;
2175;SDS011;1094;49.902;10.876;2023-01-25T08:08:29;29.30;;;26.77;;
2175;SDS011;1094;49.902;10.876;2023-01-25T08:10:57;29.05;;;26.70;;
2175;SDS011;1094;49.902;10.876;2023-01-25T08:13:24;29.40;;;26.70;;
2175;SDS011;1094;49.902;10.876;2023-01-25T08:15:53;27.48;;;24.83;;
2175;SDS011;1094;49.902;10.876;2023-01-25T08:18:19;28.77;;;26.33;;
2175;SDS011;1094;49.902;10.876;2023-01-25T08:20:45;28.57;;;26.17;;
2175;SDS011;1094;49.902;10.876;2023-01-25T08:23:11;28.42;;;25.85;;
2175;SDS011;1094;49.902;10.876;2023-01-25T08:25:37;30.30;;;27.63;;
2175;SDS011;1094;49.902;10.876;2023-01-25T08:28:03;27.90;;;25.67;;
2175;SDS011;1094;49.902;10.876;2023-01-25T08:30:29;29.15;;;26.35;;
2175;SDS011;1094;49.902;10.876;2023-01-25T08:32:55;29.30;;;26.67;;
2175;SDS011;1094;49.902;10.876;2023-01-25T08:35:21;28.10;;;25.87;;
2175;SDS011;1094;49.902;10.876;2023-01-25T08:37:47;31.60;;;28.47;;
2175;SDS011;1094;49.902;10.876;2023-01-25T08:40:13;30.00;;;27.50;;
2175;SDS011;1094;49.902;10.876;2023-01-25T08:42:39;28.40;;;26.03;;
2175;SDS011;1094;49.902;10.876;2023-01-25T08:45:07;28.20;;;25.75;;
2175;SDS011;1094;49.902;10.876;2023-01-25T08:47:36;29.02;;;26.52;;
2175;SDS011;1094;49.902;10.876;2023-01-25T08:50:05;29.63;;;26.83;;
2175;SDS011;1094;49.902;10.876;2023-01-25T08:52:31;28.30;;;26.10;;
2175;SDS011;1094;49.902;10.876;2023-01-25T08:54:57;29.77;;;27.20;;
2175;SDS011;1094;49.902;10.876;2023-01-25T08:57:23;29.13;;;26.77;;
2175;SDS011;1094;49.902;10.876;2023-01-25T08:59:48;27.27;;;25.10;;
2175;SDS011;1094;49.902;10.876;2023-01-25T09:02:14;29.00;;;26.40;;
2175;SDS011;1094;49.902;10.876;2023-01-25T09:04:41;29.48;;;27.00;;
2175;SDS011;1094;49.902;10.876;2023-01-25T09:07:07;29.67;;;27.17;;
2175;SDS011;1094;49.902;10.876;2023-01-25T09:09:32;29.97;;;26.87;;
2175;SDS011;1094;49.902;10.876;2023-01-25T09:11:58;30.83;;;28.10;;
2175;SDS011;1094;49.902;10.876;2023-01-25T09:14:24;30.67;;;27.63;;
2175;SDS011;1094;49.902;10.876;2023-01-25T09:16:50;30.60;;;27.63;;
2175;SDS011;1094;49.902;10.876;2023-01-25T09:19:16;28.63;;;26.03;;
2175;SDS011;1094;49.902;10.876;2023-01-25T09:21:42;32.37;;;29.67;;
2175;SDS011;1094;49.902;10.876;2023-01-25T09:24:08;29.63;;;27.17;;
2175;SDS011;1094;49.902;10.876;2023-01-25T09:26:38;28.90;;;26.37;;
2175;SDS011;1094;49.902;10.876;2023-01-25T09:29:04;29.38;;;26.83;;
2175;SDS011;1094;49.902;10.876;2023-01-25T09:31:32;30.50;;;27.88;;
2175;SDS011;1094;49.902;10.876;2023-01-25T09:33:58;28.60;;;26.30;;
2175;SDS011;1094;49.902;10.876;2023-01-25T09:36:24;28.47;;;26.17;;
2175;SDS011;1094;49.902;10.876;2023-01-25T09:38:49;28.50;;;26.20;;
2175;SDS011;1094;49.902;10.876;2023-01-25T09:43:59;28.67;;;26.30;;
2175;SDS011;1094;49.902;10.876;2023-01-25T09:46:33;27.88;;;25.60;;
2175;SDS011;1094;49.902;10.876;2023-01-25T09:54:18;28.45;;;26.10;;
2175;SDS011;1094;49.902;10.876;2023-01-25T09:56:46;27.23;;;24.90;;
2175;SDS011;1094;49.902;10.876;2023-01-25T09:59:16;28.27;;;25.90;;
2175;SDS011;1094;49.902;10.876;2023-01-25T10:01:46;27.38;;;25.40;;
2175;SDS011;1094;49.902;10.876;2023-01-25T10:04:16;29.27;;;26.83;;
2175;SDS011;1094;49.902;10.876;2023-01-25T10:06:43;26.15;;;24.13;;
2175;SDS011;1094;49.902;10.876;2023-01-25T10:11:57;25.90;;;24.10;;
2175;SDS011;1094;49.902;10.876;2023-01-25T10:14:24;27.97;;;25.87;;
2175;SDS011;1094;49.902;10.876;2023-01-25T10:16:54;26.37;;;24.47;;
2175;SDS011;1094;49.902;10.876;2023-01-25T10:22:11;27.73;;;25.33;;
2175;SDS011;1094;49.902;10.876;2023-01-25T10:24:52;30.20;;;27.37;;
2175;SDS011;1094;49.902;10.876;2023-01-25T10:27:27;28.97;;;26.07;;
2175;SDS011;1094;49.902;10.876;2023-01-25T10:29:57;28.77;;;26.13;;
2175;SDS011;1094;49.902;10.876;2023-01-25T10:32:28;28.90;;;26.40;;
2175;SDS011;1094;49.902;10.876;2023-01-25T10:35:00;26.80;;;24.50;;
2175;SDS011;1094;49.902;10.876;2023-01-25T10:37:35;28.30;;;25.97;;
2175;SDS011;1094;49.902;10.876;2023-01-25T10:40:02;28.37;;;25.77;;
2175;SDS011;1094;49.902;10.876;2023-01-25T10:42:30;28.40;;;26.03;;
2175;SDS011;1094;49.902;10.876;2023-01-25T10:44:57;28.27;;;25.43;;
2175;SDS011;1094;49.902;10.876;2023-01-25T10:47:25;28.43;;;25.73;;
2175;SDS011;1094;49.902;10.876;2023-01-25T10:49:59;29.07;;;26.30;;
2175;SDS011;1094;49.902;10.876;2023-01-25T10:52:26;30.40;;;27.80;;
2175;SDS011;1094;49.902;10.876;2023-01-25T10:55:06;28.38;;;26.02;;
2175;SDS011;1094;49.902;10.876;2023-01-25T10:57:32;28.10;;;25.60;;
2175;SDS011;1094;49.902;10.876;2023-01-25T11:00:01;29.87;;;27.23;;
2175;SDS011;1094;49.902;10.876;2023-01-25T11:07:47;27.40;;;25.08;;
2175;SDS011;1094;49.902;10.876;2023-01-25T11:16:26;27.53;;;25.37;;
2175;SDS011;1094;49.902;10.876;2023-01-25T11:18:33;28.77;;;26.30;;
2175;SDS011;1094;49.902;10.876;2023-01-25T11:21:06;26.67;;;24.77;;
2175;SDS011;1094;49.902;10.876;2023-01-25T11:23:36;27.35;;;24.77;;
2175;SDS011;1094;49.902;10.876;2023-01-25T11:26:13;27.35;;;24.98;;
2175;SDS011;1094;49.902;10.876;2023-01-25T11:28:39;27.42;;;25.27;;
2175;SDS011;1094;49.902;10.876;2023-01-25T11:31:16;36.93;;;26.10;;
2175;SDS011;1094;49.902;10.876;2023-01-25T11:33:44;26.60;;;24.40;;
2175;SDS011;1094;49.902;10.876;2023-01-25T11:36:21;26.90;;;24.70;;
2175;SDS011;1094;49.902;10.876;2023-01-25T11:46:32;27.23;;;25.20;;
2175;SDS011;1094;49.902;10.876;2023-01-25T11:52:05;25.80;;;23.80;;
2175;SDS011;1094;49.902;10.876;2023-01-25T11:54:39;30.00;;;27.60;;
2175;SDS011;1094;49.902;10.876;2023-01-25T11:57:28;27.57;;;25.20;;
2175;SDS011;1094;49.902;10.876;2023-01-25T12:10:24;27.83;;;25.50;;
2175;SDS011;1094;49.902;10.876;2023-01-25T12:23:43;27.92;;;25.67;;
2175;SDS011;1094;49.902;10.876;2023-01-25T12:26:28;27.83;;;25.55;;
2175;SDS011;1094;49.902;10.876;2023-01-25T12:29:15;29.60;;;26.90;;
2175;SDS011;1094;49.902;10.876;2023-01-25T12:34:18;27.35;;;25.23;;
2175;SDS011;1094;49.902;10.876;2023-01-25T12:36:47;28.67;;;26.40;;
2175;SDS011;1094;49.902;10.876;2023-01-25T12:41:46;29.87;;;27.10;;
2175;SDS011;1094;49.902;10.876;2023-01-25T12:46:50;27.87;;;25.60;;
2175;SDS011;1094;49.902;10.876;2023-01-25T12:49:24;29.63;;;26.27;;
2175;SDS011;1094;49.902;10.876;2023-01-25T12:51:52;26.83;;;24.70;;
2175;SDS011;1094;49.902;10.876;2023-01-25T12:54:39;27.37;;;25.07;;
2175;SDS011;1094;49.902;10.876;2023-01-25T12:57:07;28.57;;;26.30;;
2175;SDS011;1094;49.902;10.876;2023-01-25T13:08:18;27.63;;;25.10;;
2175;SDS011;1094;49.902;10.876;2023-01-25T13:10:32;27.05;;;24.85;;
2175;SDS011;1094;49.902;10.876;2023-01-25T13:13:00;27.55;;;24.95;;
2175;SDS011;1094;49.902;10.876;2023-01-25T13:15:36;27.48;;;25.33;;
2175;SDS011;1094;49.902;10.876;2023-01-25T13:20:48;25.80;;;23.95;;
2175;SDS011;1094;49.902;10.876;2023-01-25T13:23:30;28.48;;;26.00;;
2175;SDS011;1094;49.902;10.876;2023-01-25T13:28:42;26.95;;;24.65;;
2175;SDS011;1094;49.902;10.876;2023-01-25T13:31:42;27.98;;;25.58;;
2175;SDS011;1094;49.902;10.876;2023-01-25T13:33:57;27.38;;;25.02;;
2175;SDS011;1094;49.902;10.876;2023-01-25T13:36:37;27.98;;;25.38;;
2175;SDS011;1094;49.902;10.876;2023-01-25T13:42:33;27.05;;;24.83;;
2175;SDS011;1094;49.902;10.876;2023-01-25T13:44:43;27.17;;;25.02;;
2175;SDS011;1094;49.902;10.876;2023-01-25T13:47:11;27.92;;;25.15;;
2175;SDS011;1094;49.902;10.876;2023-01-25T13:49:45;28.30;;;25.63;;
2175;SDS011;1094;49.902;10.876;2023-01-25T13:52:16;27.30;;;24.97;;
2175;SDS011;1094;49.902;10.876;2023-01-25T13:54:43;27.47;;;25.13;;
2175;SDS011;1094;49.902;10.876;2023-01-25T13:57:13;27.93;;;25.63;;
2175;SDS011;1094;49.902;10.876;2023-01-25T13:59:39;29.20;;;26.47;;
2175;SDS011;1094;49.902;10.876;2023-01-25T14:02:13;28.97;;;26.33;;
2175;SDS011;1094;49.902;10.876;2023-01-25T14:04:42;27.60;;;25.40;;
2175;SDS011;1094;49.902;10.876;2023-01-25T14:07:10;28.40;;;26.17;;
2175;SDS011;1094;49.902;10.876;2023-01-25T14:09:39;28.37;;;25.70;;
2175;SDS011;1094;49.902;10.876;2023-01-25T14:12:07;28.38;;;25.85;;
2175;SDS011;1094;49.902;10.876;2023-01-25T14:14:34;29.33;;;26.65;;
2175;SDS011;1094;49.902;10.876;2023-01-25T14:19:27;31.10;;;28.23;;
2175;SDS011;1094;49.902;10.876;2023-01-25T14:22:10;29.90;;;27.30;;
2175;SDS011;1094;49.902;10.876;2023-01-25T14:24:36;29.27;;;26.83;;
2175;SDS011;1094;49.902;10.876;2023-01-25T14:27:03;29.73;;;27.23;;
2175;SDS011;1094;49.902;10.876;2023-01-25T14:29:29;30.00;;;27.45;;
2175;SDS011;1094;49.902;10.876;2023-01-25T14:31:57;28.90;;;26.30;;
2175;SDS011;1094;49.902;10.876;2023-01-25T14:34:24;29.57;;;27.07;;
2175;SDS011;1094;49.902;10.876;2023-01-25T14:37:03;30.33;;;27.53;;
2175;SDS011;1094;49.902;10.876;2023-01-25T14:39:29;30.73;;;27.73;;
2175;SDS011;1094;49.902;10.876;2023-01-25T14:41:57;30.15;;;27.35;;
2175;SDS011;1094;49.902;10.876;2023-01-25T14:44:23;29.00;;;26.23;;
2175;SDS011;1094;49.902;10.876;2023-01-25T14:46:49;29.23;;;26.73;;
2175;SDS011;1094;49.902;10.876;2023-01-25T14:49:35;29.88;;;26.95;;
2175;SDS011;1094;49.902;10.876;2023-01-25T14:52:04;29.00;;;26.53;;
2175;SDS011;1094;49.902;10.876;2023-01-25T14:54:36;29.80;;;27.17;;
2175;SDS011;1094;49.902;10.876;2023-01-25T14:57:21;30.30;;;27.30;;
2175;SDS011;1094;49.902;10.876;2023-01-25T14:59:49;30.25;;;27.80;;
2175;SDS011;1094;49.902;10.876;2023-01-25T15:05:06;29.42;;;26.95;;
2175;SDS011;1094;49.902;10.876;2023-01-25T15:07:42;27.83;;;25.43;;
2175;SDS011;1094;49.902;10.876;2023-01-25T15:10:24;29.00;;;26.40;;
2175;SDS011;1094;49.902;10.876;2023-01-25T15:15:23;30.70;;;28.00;;
2175;SDS011;1094;49.902;10.876;2023-01-25T15:17:49;28.15;;;25.85;;
2175;SDS011;1094;49.902;10.876;2023-01-25T15:20:26;28.73;;;26.10;;
2175;SDS011;1094;49.902;10.876;2023-01-25T15:22:52;30.03;;;27.40;;
2175;SDS011;1094;49.902;10.876;2023-01-25T15:25:18;27.57;;;25.33;;
2175;SDS011;1094;49.902;10.876;2023-01-25T15:27:44;28.43;;;26.13;;
2175;SDS011;1094;49.902;10.876;2023-01-25T15:30:11;28.75;;;26.45;;
2175;SDS011;1094;49.902;10.876;2023-01-25T15:32:37;28.83;;;26.33;;
2175;SDS011;1094;49.902;10.876;2023-01-25T15:35:04;29.27;;;26.53;;
2175;SDS011;1094;49.902;10.876;2023-01-25T15:37:31;28.73;;;26.20;;
2175;SDS011;1094;49.902;10.876;2023-01-25T15:39:57;28.80;;;26.40;;
2175;SDS011;1094;49.902;10.876;2023-01-25T15:42:22;29.23;;;26.67;;
2175;SDS011;1094;49.902;10.876;2023-01-25T15:44:48;28.90;;;26.40;;
2175;SDS011;1094;49.902;10.876;2023-01-25T15:47:14;28.70;;;26.40;;
2175;SDS011;1094;49.902;10.876;2023-01-25T15:49:40;30.60;;;27.88;;
2175;SDS011;1094;49.902;10.876;2023-01-25T15:52:07;28.80;;;26.30;;
2175;SDS011;1094;49.902;10.876;2023-01-25T15:54:33;29.30;;;26.67;;
2175;SDS011;1094;49.902;10.876;2023-01-25T15:56:59;30.43;;;27.73;;
2175;SDS011;1094;49.902;10.876;2023-01-25T15:59:25;28.83;;;26.00;;
2175;SDS011;1094;49.902;10.876;2023-01-25T16:01:55;30.80;;;28.20;;
2175;SDS011;1094;49.902;10.876;2023-01-25T16:04:21;29.70;;;27.20;;
2175;SDS011;1094;49.902;10.876;2023-01-25T16:06:49;28.63;;;26.15;;
2175;SDS011;1094;49.902;10.876;2023-01-25T16:11:45;28.27;;;25.65;;
2175;SDS011;1094;49.902;10.876;2023-01-25T16:14:12;29.48;;;26.98;;
2175;SDS011;1094;49.902;10.876;2023-01-25T16:16:39;31.23;;;28.33;;
2175;SDS011;1094;49.902;10.876;2023-01-25T16:19:05;28.98;;;26.02;;
2175;SDS011;1094;49.902;10.876;2023-01-25T16:21:31;30.93;;;28.03;;
2175;SDS011;1094;49.902;10.876;2023-01-25T16:23:57;28.87;;;26.20;;
2175;SDS011;1094;49.902;10.876;2023-01-25T16:26:24;29.13;;;26.43;;
2175;SDS011;1094;49.902;10.876;2023-01-25T16:28:50;28.45;;;26.17;;
2175;SDS011;1094;49.902;10.876;2023-01-25T16:31:16;28.00;;;25.27;;
2175;SDS011;1094;49.902;10.876;2023-01-25T16:33:43;29.95;;;27.30;;
2175;SDS011;1094;49.902;10.876;2023-01-25T16:36:11;31.10;;;28.60;;
2175;SDS011;1094;49.902;10.876;2023-01-25T16:38:37;28.63;;;26.13;;
2175;SDS011;1094;49.902;10.876;2023-01-25T16:41:03;28.93;;;26.40;;
2175;SDS011;1094;49.902;10.876;2023-01-25T16:43:29;29.92;;;27.35;;
2175;SDS011;1094;49.902;10.876;2023-01-25T16:45:58;31.40;;;28.40;;
2175;SDS011;1094;49.902;10.876;2023-01-25T16:48:24;30.15;;;27.55;;
2175;SDS011;1094;49.902;10.876;2023-01-25T16:50:50;31.07;;;28.23;;
2175;SDS011;1094;49.902;10.876;2023-01-25T16:53:16;30.95;;;28.33;;
2175;SDS011;1094;49.902;10.876;2023-01-25T16:55:42;31.13;;;28.08;;
2175;SDS011;1094;49.902;10.876;2023-01-25T16:58:08;30.50;;;27.75;;
2175;SDS011;1094;49.902;10.876;2023-01-25T17:00:34;31.73;;;28.80;;
2175;SDS011;1094;49.902;10.876;2023-01-25T17:03:00;31.37;;;28.33;;
2175;SDS011;1094;49.902;10.876;2023-01-25T17:05:26;31.43;;;28.40;;
2175;SDS011;1094;49.902;10.876;2023-01-25T17:07:55;31.13;;;28.10;;
2175;SDS011;1094;49.902;10.876;2023-01-25T17:10:21;30.65;;;28.15;;